createdAt,value
2022-11-13T00:01:38.337Z,10.64
2022-11-13T00:04:04.925Z,10.21
2022-11-13T00:06:31.325Z,10.67
2022-11-13T00:08:57.836Z,10.56
2022-11-13T00:11:24.499Z,10.50
2022-11-13T00:13:50.984Z,10.15
2022-11-13T00:16:20.589Z,10.28
2022-11-13T00:18:48.289Z,10.48
2022-11-13T00:21:21.432Z,10.41
2022-11-13T00:23:48.191Z,10.40
2022-11-13T00:26:21.187Z,10.29
2022-11-13T00:28:47.772Z,10.33
2022-11-13T00:31:15.478Z,10.31
2022-11-13T00:36:28.984Z,10.27
2022-11-13T00:38:55.876Z,10.28
2022-11-13T00:41:23.854Z,10.30
2022-11-13T00:43:50.400Z,10.22
2022-11-13T00:46:16.891Z,10.20
2022-11-13T00:48:43.518Z,10.24
2022-11-13T00:51:10.149Z,10.12
2022-11-13T00:53:36.572Z,9.98
2022-11-13T00:56:03.435Z,9.96
2022-11-13T00:58:30.199Z,9.92
2022-11-13T01:01:06.140Z,9.99
2022-11-13T01:03:32.691Z,9.84
2022-11-13T01:06:10.319Z,9.83
2022-11-13T01:08:36.801Z,9.94
2022-11-13T01:11:09.592Z,9.83
2022-11-13T01:13:36.019Z,9.70
2022-11-13T01:16:06.824Z,9.71
2022-11-13T01:18:33.535Z,9.78
2022-11-13T01:21:09.481Z,9.79
2022-11-13T01:23:36.693Z,9.61
2022-11-13T01:26:06.422Z,9.63
2022-11-13T01:28:33.025Z,9.61
2022-11-13T01:30:59.483Z,9.57
2022-11-13T01:33:25.907Z,9.54
2022-11-13T01:35:52.317Z,9.34
2022-11-13T01:38:18.739Z,9.19
2022-11-13T01:40:46.921Z,9.38
2022-11-13T01:43:33.385Z,9.24
2022-11-13T01:45:59.741Z,9.05
2022-11-13T01:48:32.876Z,9.14
2022-11-13T01:50:59.535Z,9.15
2022-11-13T01:53:27.846Z,9.13
2022-11-13T01:55:54.532Z,9.13
2022-11-13T01:58:21.174Z,9.07
2022-11-13T02:00:47.795Z,9.06
2022-11-13T02:03:14.357Z,8.73
2022-11-13T02:05:40.803Z,8.71
2022-11-13T02:08:07.266Z,8.85
2022-11-13T02:10:33.743Z,8.88
2022-11-13T02:13:00.450Z,8.88
2022-11-13T02:15:31.974Z,8.91
2022-11-13T02:18:00.478Z,8.70
2022-11-13T02:20:48.526Z,8.59
2022-11-13T02:23:24.136Z,8.49
2022-11-13T02:25:53.376Z,8.48
2022-11-13T02:28:20.105Z,8.45
2022-11-13T02:30:46.642Z,8.36
2022-11-13T02:33:33.181Z,8.56
2022-11-13T02:36:00.030Z,8.50
2022-11-13T02:38:26.812Z,8.30
2022-11-13T02:40:53.390Z,8.46
2022-11-13T02:43:19.856Z,8.35
2022-11-13T02:45:46.322Z,8.41
2022-11-13T02:48:12.819Z,8.42
2022-11-13T02:50:39.510Z,8.32
2022-11-13T02:53:06.517Z,8.32
2022-11-13T02:55:33.193Z,8.11
2022-11-13T02:57:59.633Z,8.19
2022-11-13T03:00:26.433Z,8.22
2022-11-13T03:02:52.932Z,8.15
2022-11-13T03:05:19.475Z,8.13
2022-11-13T03:07:45.949Z,7.46
2022-11-13T03:10:12.626Z,6.66
2022-11-13T03:12:40.581Z,7.14
2022-11-13T03:15:08.751Z,7.39
2022-11-13T03:17:35.821Z,7.21
2022-11-13T03:20:02.594Z,7.22
2022-11-13T03:22:29.065Z,6.37
2022-11-13T03:24:55.530Z,6.21
2022-11-13T03:27:22.353Z,6.87
2022-11-13T03:29:48.872Z,6.94
2022-11-13T03:32:15.479Z,6.70
2022-11-13T03:34:42.313Z,7.05
2022-11-13T03:37:08.742Z,7.14
2022-11-13T03:39:35.151Z,7.05
2022-11-13T03:42:01.568Z,6.56
2022-11-13T03:44:28.008Z,6.02
2022-11-13T03:46:54.428Z,5.74
2022-11-13T03:49:20.903Z,6.33
2022-11-13T03:51:47.387Z,6.48
2022-11-13T03:54:13.867Z,6.62
2022-11-13T03:56:40.314Z,6.77
2022-11-13T03:59:06.784Z,6.73
2022-11-13T04:01:33.260Z,6.90
2022-11-13T04:03:59.716Z,6.90
2022-11-13T04:06:26.207Z,7.00
2022-11-13T04:08:54.007Z,7.01
2022-11-13T04:11:20.501Z,6.66
2022-11-13T04:13:46.928Z,6.82
2022-11-13T04:16:13.593Z,6.91
2022-11-13T04:18:39.999Z,6.85
2022-11-13T04:21:06.518Z,6.85
2022-11-13T04:23:35.277Z,6.77
2022-11-13T04:26:01.691Z,6.75
2022-11-13T04:28:28.536Z,6.80
2022-11-13T04:30:57.157Z,6.79
2022-11-13T04:33:23.709Z,6.67
2022-11-13T04:35:50.123Z,6.84
2022-11-13T04:38:16.549Z,6.47
2022-11-13T04:40:43.347Z,6.38
2022-11-13T04:43:09.791Z,6.42
2022-11-13T04:45:36.968Z,6.56
2022-11-13T04:48:03.726Z,6.58
2022-11-13T04:50:30.440Z,6.55
2022-11-13T04:52:56.919Z,6.66
2022-11-13T04:55:23.480Z,6.69
2022-11-13T04:57:51.421Z,6.73
2022-11-13T05:00:18.209Z,6.73
2022-11-13T05:02:44.657Z,6.77
2022-11-13T05:05:11.073Z,6.78
2022-11-13T05:07:37.510Z,6.84
2022-11-13T05:10:04.475Z,6.75
2022-11-13T05:12:30.895Z,6.57
2022-11-13T05:14:57.318Z,6.53
2022-11-13T05:17:23.748Z,6.67
2022-11-13T05:19:50.236Z,6.68
2022-11-13T05:22:16.676Z,6.72
2022-11-13T05:24:43.158Z,6.76
2022-11-13T05:27:14.171Z,6.42
2022-11-13T05:29:43.528Z,6.37
2022-11-13T05:32:09.961Z,6.27
2022-11-13T05:34:36.395Z,6.45
2022-11-13T05:37:02.787Z,6.38
2022-11-13T05:39:29.192Z,6.59
2022-11-13T05:41:55.672Z,6.69
2022-11-13T05:44:22.075Z,6.62
2022-11-13T05:46:48.560Z,6.55
2022-11-13T05:49:15.513Z,6.58
2022-11-13T05:51:41.998Z,6.73
2022-11-13T05:54:08.761Z,6.53
2022-11-13T05:56:36.538Z,6.37
2022-11-13T05:59:04.176Z,6.52
2022-11-13T06:01:32.248Z,6.56
2022-11-13T06:04:00.636Z,6.51
2022-11-13T06:06:28.871Z,6.41
2022-11-13T06:08:56.441Z,6.60
2022-11-13T06:11:27.314Z,6.56
2022-11-13T06:13:55.116Z,6.41
2022-11-13T06:16:27.436Z,6.55
2022-11-13T06:18:59.370Z,6.60
2022-11-13T06:21:29.647Z,6.45
2022-11-13T06:24:00.257Z,6.38
2022-11-13T06:26:34.859Z,6.20
2022-11-13T06:29:03.013Z,6.41
2022-11-13T06:31:32.805Z,6.26
2022-11-13T06:33:59.804Z,6.21
2022-11-13T06:36:32.793Z,6.37
2022-11-13T06:39:00.007Z,6.46
2022-11-13T06:41:31.088Z,6.46
2022-11-13T06:44:02.634Z,6.53
2022-11-13T06:46:31.335Z,6.53
2022-11-13T06:48:58.182Z,6.61
2022-11-13T06:51:31.398Z,6.79
2022-11-13T06:53:58.478Z,6.68
2022-11-13T06:56:25.132Z,6.37
2022-11-13T06:58:51.874Z,6.53
2022-11-13T07:01:21.321Z,6.55
2022-11-13T07:03:48.476Z,6.59
2022-11-13T07:06:21.542Z,6.47
2022-11-13T07:08:48.703Z,6.47
2022-11-13T07:11:17.921Z,6.76
2022-11-13T07:13:45.496Z,6.55
2022-11-13T07:16:17.284Z,6.42
2022-11-13T07:18:44.729Z,6.33
2022-11-13T07:21:12.448Z,6.49
2022-11-13T07:23:43.013Z,6.86
2022-11-13T07:26:11.340Z,6.78
2022-11-13T07:28:38.413Z,7.08
2022-11-13T07:31:05.586Z,6.96
2022-11-13T07:33:32.260Z,7.22
2022-11-13T07:35:59.823Z,7.26
2022-11-13T07:38:26.850Z,7.52
2022-11-13T07:40:53.828Z,7.12
2022-11-13T07:43:20.498Z,6.90
2022-11-13T07:45:46.957Z,7.25
2022-11-13T07:48:13.400Z,7.23
2022-11-13T07:50:40.053Z,6.92
2022-11-13T07:53:08.702Z,7.25
2022-11-13T07:55:35.846Z,7.17
2022-11-13T07:58:03.426Z,7.03
2022-11-13T08:00:31.857Z,6.96
2022-11-13T08:02:58.830Z,6.96
2022-11-13T08:05:25.275Z,7.11
2022-11-13T08:07:52.332Z,7.16
2022-11-13T08:10:20.025Z,7.08
2022-11-13T08:12:47.224Z,7.48
2022-11-13T08:15:14.412Z,7.33
2022-11-13T08:17:40.982Z,6.91
2022-11-13T08:20:08.994Z,7.81
2022-11-13T08:22:35.583Z,7.72
2022-11-13T08:25:02.125Z,7.70
2022-11-13T08:27:28.521Z,7.64
2022-11-13T08:29:54.993Z,7.66
2022-11-13T08:32:22.534Z,7.77
2022-11-13T08:34:49.299Z,8.17
2022-11-13T08:37:16.024Z,7.97
2022-11-13T08:39:42.547Z,8.06
2022-11-13T08:42:08.989Z,7.98
2022-11-13T08:44:35.415Z,8.10
2022-11-13T08:47:01.860Z,8.41
2022-11-13T08:52:03.720Z,7.97
2022-11-13T08:54:30.206Z,8.02
2022-11-13T08:56:59.650Z,8.16
2022-11-13T08:59:28.518Z,8.02
2022-11-13T09:01:59.262Z,8.48
2022-11-13T09:04:26.481Z,7.98
2022-11-13T09:06:53.122Z,7.80
2022-11-13T09:09:20.205Z,8.08
2022-11-13T09:11:46.717Z,8.03
2022-11-13T09:14:13.241Z,8.35
2022-11-13T09:16:39.958Z,8.58
2022-11-13T09:19:06.459Z,8.57
2022-11-13T09:21:32.901Z,8.89
2022-11-13T09:23:59.381Z,8.87
2022-11-13T09:26:25.837Z,8.54
2022-11-13T09:28:52.365Z,8.77
2022-11-13T09:31:18.830Z,8.68
2022-11-13T09:33:45.270Z,9.00
2022-11-13T09:36:14.227Z,8.74
2022-11-13T09:38:41.245Z,9.01
2022-11-13T09:41:20.501Z,8.63
2022-11-13T09:43:59.235Z,8.90
2022-11-13T09:46:40.507Z,8.74
2022-11-13T09:49:25.340Z,8.99
2022-11-13T09:51:55.694Z,8.98
2022-11-13T09:54:22.776Z,8.64
2022-11-13T09:57:04.165Z,8.63
2022-11-13T09:59:39.672Z,8.60
2022-11-13T10:02:34.237Z,9.15
2022-11-13T10:05:04.888Z,8.91
2022-11-13T10:07:57.960Z,9.19
2022-11-13T10:11:01.961Z,9.22
2022-11-13T10:13:59.661Z,9.16
2022-11-13T10:16:33.995Z,9.46
2022-11-13T10:19:19.840Z,9.33
2022-11-13T10:22:07.727Z,8.94
2022-11-13T10:24:43.156Z,9.14
2022-11-13T10:27:11.859Z,9.51
2022-11-13T10:29:39.003Z,9.69
2022-11-13T10:32:29.321Z,9.86
2022-11-13T10:35:23.186Z,9.63
2022-11-13T10:38:18.232Z,9.54
2022-11-13T10:40:44.755Z,9.65
2022-11-13T10:43:19.740Z,9.79
2022-11-13T10:46:04.934Z,10.04
2022-11-13T10:48:33.803Z,10.36
2022-11-13T10:51:04.413Z,10.40
2022-11-13T10:53:42.082Z,10.21
2022-11-13T10:56:34.784Z,10.74
2022-11-13T10:59:14.388Z,10.43
2022-11-13T11:01:43.658Z,10.18
2022-11-13T11:04:19.362Z,10.08
2022-11-13T11:07:18.552Z,9.97
2022-11-13T11:09:38.397Z,9.62
2022-11-13T11:12:17.091Z,9.52
2022-11-13T11:14:57.652Z,9.93
2022-11-13T11:17:51.084Z,9.71
2022-11-13T11:20:36.246Z,9.76
2022-11-13T11:23:21.846Z,9.90
2022-11-13T11:26:08.475Z,9.74
2022-11-13T11:28:46.097Z,10.48
2022-11-13T11:31:23.236Z,10.10
2022-11-13T11:33:56.628Z,10.08
2022-11-13T11:36:23.109Z,10.02
2022-11-13T11:39:31.195Z,10.10
2022-11-13T11:42:10.089Z,10.23
2022-11-13T11:44:50.284Z,10.02
2022-11-13T11:47:18.037Z,10.26
2022-11-13T11:49:45.167Z,10.66
2022-11-13T11:52:31.720Z,10.76
2022-11-13T11:55:04.308Z,10.17
2022-11-13T11:57:33.724Z,10.44
2022-11-13T12:00:06.297Z,10.74
2022-11-13T12:02:47.710Z,10.52
2022-11-13T12:05:29.646Z,10.57
2022-11-13T12:08:05.973Z,10.29
2022-11-13T12:10:38.283Z,10.50
2022-11-13T12:13:16.656Z,10.28
2022-11-13T12:16:00.891Z,10.46
2022-11-13T12:18:47.736Z,10.76
2022-11-13T12:21:29.529Z,10.52
2022-11-13T12:24:01.794Z,10.34
2022-11-13T12:26:47.248Z,10.15
2022-11-13T12:29:19.404Z,10.43
2022-11-13T12:31:53.572Z,10.30
2022-11-13T12:34:29.078Z,10.37
2022-11-13T12:36:56.505Z,10.31
2022-11-13T12:39:45.609Z,10.27
2022-11-13T12:42:21.405Z,10.02
2022-11-13T12:45:19.657Z,10.28
2022-11-13T12:47:49.630Z,10.34
2022-11-13T12:50:32.741Z,10.28
2022-11-13T12:53:05.678Z,10.21
2022-11-13T12:55:34.854Z,10.33
2022-11-13T12:58:21.474Z,10.12
2022-11-13T13:01:17.582Z,10.09
2022-11-13T13:04:00.875Z,9.91
2022-11-13T13:07:01.314Z,10.13
2022-11-13T13:09:52.182Z,10.17
2022-11-13T13:12:42.436Z,10.38
2022-11-13T13:15:23.152Z,10.17
2022-11-13T13:17:49.563Z,10.28
2022-11-13T13:20:15.945Z,10.38
2022-11-13T13:22:42.406Z,9.87
2022-11-13T13:25:28.025Z,9.56
2022-11-13T13:28:04.220Z,9.75
2022-11-13T13:30:46.158Z,8.97
2022-11-13T13:33:26.727Z,9.91
2022-11-13T13:36:22.924Z,10.25
2022-11-13T13:39:19.019Z,10.07
2022-11-13T13:41:51.188Z,9.52
2022-11-13T13:44:32.893Z,9.91
2022-11-13T13:46:59.585Z,9.98
2022-11-13T13:49:28.640Z,9.84
2022-11-13T13:51:57.329Z,9.55
2022-11-13T13:54:29.042Z,9.46
2022-11-13T13:56:57.804Z,9.66
2022-11-13T13:59:33.296Z,9.24
2022-11-13T14:02:02.140Z,9.32
2022-11-13T14:04:32.902Z,9.36
2022-11-13T14:07:01.543Z,9.28
2022-11-13T14:09:30.317Z,9.79
2022-11-13T14:11:58.345Z,10.30
2022-11-13T14:14:25.590Z,9.68
2022-11-13T14:16:54.031Z,9.97
2022-11-13T14:19:20.818Z,9.73
2022-11-13T14:21:50.264Z,9.55
2022-11-13T14:24:27.704Z,9.74
2022-11-13T14:26:56.407Z,9.36
2022-11-13T14:29:32.384Z,9.46
2022-11-13T14:32:10.521Z,10.05
2022-11-13T14:34:37.944Z,9.42
2022-11-13T14:37:13.936Z,9.78
2022-11-13T14:39:40.529Z,9.99
2022-11-13T14:42:07.001Z,10.38
2022-11-13T14:44:34.801Z,10.08
2022-11-13T14:47:20.423Z,10.13
2022-11-13T14:49:46.873Z,9.78
2022-11-13T14:52:25.014Z,9.59
2022-11-13T14:55:18.535Z,9.81
2022-11-13T14:57:49.447Z,9.87
2022-11-13T15:00:26.866Z,10.06
2022-11-13T15:02:53.322Z,9.93
2022-11-13T15:05:19.751Z,9.58
2022-11-13T15:07:46.784Z,9.70
2022-11-13T15:10:16.353Z,9.66
2022-11-13T15:12:42.847Z,10.11
2022-11-13T15:15:15.163Z,10.18
2022-11-13T15:17:43.450Z,10.13
2022-11-13T15:20:18.474Z,10.03
2022-11-13T15:22:45.146Z,9.88
2022-11-13T15:25:16.595Z,10.32
2022-11-13T15:27:43.581Z,10.29
2022-11-13T15:30:11.202Z,10.35
2022-11-13T15:32:38.126Z,10.16
2022-11-13T15:35:06.343Z,10.15
2022-11-13T15:37:33.487Z,10.18
2022-11-13T15:40:00.031Z,10.08
2022-11-13T15:42:33.075Z,9.82
2022-11-13T15:44:59.612Z,9.58
2022-11-13T15:47:26.354Z,9.95
2022-11-13T15:50:12.534Z,9.93
2022-11-13T15:52:41.876Z,10.17
2022-11-13T15:55:19.700Z,10.05
2022-11-13T15:57:46.297Z,10.33
2022-11-13T16:00:17.103Z,10.25
2022-11-13T16:02:43.583Z,10.13
2022-11-13T16:05:10.321Z,10.06
2022-11-13T16:07:39.869Z,10.08
2022-11-13T16:10:10.613Z,10.03
2022-11-13T16:12:37.025Z,10.11
2022-11-13T16:15:03.894Z,10.44
2022-11-13T16:17:42.172Z,9.33
2022-11-13T16:20:16.459Z,10.24
2022-11-13T16:22:43.991Z,10.25
2022-11-13T16:25:17.323Z,9.78
2022-11-13T16:27:43.820Z,9.64
2022-11-13T16:30:15.494Z,10.49
2022-11-13T16:32:42.003Z,10.27
2022-11-13T16:35:15.689Z,9.72
2022-11-13T16:37:42.721Z,10.47
2022-11-13T16:40:20.649Z,10.60
2022-11-13T16:42:47.296Z,10.18
2022-11-13T16:45:13.799Z,9.95
2022-11-13T16:47:40.298Z,10.02
2022-11-13T16:50:18.584Z,10.23
2022-11-13T16:52:45.126Z,10.58
2022-11-13T16:55:11.622Z,10.06
2022-11-13T16:57:38.215Z,9.88
2022-11-13T17:00:07.274Z,10.16
2022-11-13T17:02:33.805Z,9.90
2022-11-13T17:05:00.263Z,10.22
2022-11-13T17:07:26.990Z,10.22
2022-11-13T17:10:16.524Z,10.40
2022-11-13T17:12:40.137Z,9.80
2022-11-13T17:15:07.047Z,9.95
2022-11-13T17:17:33.505Z,9.99
2022-11-13T17:19:59.920Z,10.19
2022-11-13T17:22:26.397Z,10.58
2022-11-13T17:24:52.840Z,10.26
2022-11-13T17:27:19.244Z,10.32
2022-11-13T17:29:45.668Z,10.05
2022-11-13T17:32:12.093Z,10.43
2022-11-13T17:34:38.530Z,10.54
2022-11-13T17:37:04.977Z,10.66
2022-11-13T17:39:31.432Z,10.76
2022-11-13T17:41:57.880Z,10.55
2022-11-13T17:44:24.356Z,10.64
2022-11-13T17:46:51.943Z,10.57
2022-11-13T17:49:18.429Z,10.41
2022-11-13T17:51:44.870Z,10.46
2022-11-13T17:54:11.338Z,10.36
2022-11-13T17:56:38.473Z,10.71
2022-11-13T17:59:05.030Z,10.43
2022-11-13T18:01:33.548Z,10.39
2022-11-13T18:04:00.232Z,10.06
2022-11-13T18:06:26.744Z,10.18
2022-11-13T18:08:53.233Z,9.98
2022-11-13T18:11:22.403Z,10.16
2022-11-13T18:13:50.781Z,10.44
2022-11-13T18:16:34.451Z,10.38
2022-11-13T18:19:03.602Z,10.43
2022-11-13T18:21:32.811Z,10.51
2022-11-13T18:24:03.592Z,10.62
2022-11-13T18:26:31.316Z,10.60
2022-11-13T18:28:58.537Z,10.49
2022-11-13T18:31:25.508Z,10.50
2022-11-13T18:33:52.066Z,10.59
2022-11-13T18:36:18.767Z,9.99
2022-11-13T18:38:45.277Z,9.50
2022-11-13T18:41:15.297Z,9.45
2022-11-13T18:43:46.509Z,10.03
2022-11-13T18:46:14.580Z,10.13
2022-11-13T18:48:42.895Z,10.15
2022-11-13T18:51:17.847Z,10.20
2022-11-13T18:53:45.701Z,10.25
2022-11-13T18:56:15.079Z,9.91
2022-11-13T18:58:43.000Z,9.82
2022-11-13T19:01:21.596Z,10.05
2022-11-13T19:06:37.795Z,9.94
2022-11-13T19:09:12.553Z,10.03
2022-11-13T19:11:39.885Z,10.03
2022-11-13T19:14:07.449Z,9.86
2022-11-13T19:16:36.944Z,9.65
2022-11-13T19:19:24.163Z,9.60
2022-11-13T19:21:51.033Z,9.63
2022-11-13T19:24:17.736Z,9.70
2022-11-13T19:26:44.937Z,9.67
2022-11-13T19:29:11.735Z,9.74
2022-11-13T19:31:38.263Z,9.63
2022-11-13T19:34:07.120Z,9.73
2022-11-13T19:36:34.522Z,9.65
2022-11-13T19:39:01.116Z,9.64
2022-11-13T19:41:29.076Z,9.59
2022-11-13T19:43:58.069Z,9.60
2022-11-13T19:46:24.509Z,9.55
2022-11-13T19:48:51.812Z,9.52
2022-11-13T19:51:23.529Z,9.50
2022-11-13T19:53:54.824Z,9.43
2022-11-13T19:56:22.464Z,9.27
2022-11-13T19:58:50.407Z,9.35
2022-11-13T20:01:20.030Z,9.40
2022-11-13T20:03:46.638Z,9.10
2022-11-13T20:06:16.822Z,9.05
2022-11-13T20:08:43.890Z,9.15
2022-11-13T20:11:11.929Z,8.67
2022-11-13T20:13:39.240Z,8.96
2022-11-13T20:16:06.890Z,9.12
2022-11-13T20:18:33.474Z,9.13
2022-11-13T20:21:00.482Z,9.15
2022-11-13T20:23:27.061Z,9.11
2022-11-13T20:26:04.563Z,9.15
2022-11-13T20:28:31.827Z,8.91
2022-11-13T20:31:19.433Z,8.97
2022-11-13T20:33:47.432Z,8.98
2022-11-13T20:36:15.009Z,9.07
2022-11-13T20:38:44.235Z,9.06
2022-11-13T20:41:11.308Z,8.96
2022-11-13T20:43:38.040Z,8.96
2022-11-13T20:46:11.978Z,8.70
2022-11-13T20:48:38.548Z,8.96
2022-11-13T20:51:22.303Z,8.87
2022-11-13T20:53:49.148Z,8.65
2022-11-13T20:56:17.266Z,8.64
2022-11-13T20:58:43.904Z,8.80
2022-11-13T21:01:30.254Z,8.84
2022-11-13T21:03:59.392Z,8.75
2022-11-13T21:06:25.919Z,8.93
2022-11-13T21:08:56.672Z,8.66
2022-11-13T21:11:27.589Z,8.41
2022-11-13T21:13:55.446Z,8.58
2022-11-13T21:16:22.562Z,8.61
2022-11-13T21:18:49.196Z,8.58
2022-11-13T21:21:21.448Z,8.09
2022-11-13T21:23:48.737Z,8.76
2022-11-13T21:26:15.675Z,8.76
2022-11-13T21:28:42.911Z,8.69
2022-11-13T21:31:19.448Z,8.49
2022-11-13T21:33:47.178Z,8.27
2022-11-13T21:36:19.848Z,8.28
2022-11-13T21:38:46.472Z,8.20
2022-11-13T21:41:24.854Z,8.27
2022-11-13T21:43:58.540Z,8.09
2022-11-13T21:46:30.774Z,8.64
2022-11-13T21:48:59.794Z,8.15
2022-11-13T21:51:26.620Z,8.40
2022-11-13T21:53:53.108Z,8.71
2022-11-13T21:56:19.595Z,8.22
2022-11-13T21:58:46.021Z,8.55
2022-11-13T22:01:13.364Z,8.55
2022-11-13T22:03:40.121Z,8.78
2022-11-13T22:06:26.218Z,8.82
2022-11-13T22:08:57.869Z,8.66
2022-11-13T22:11:27.803Z,8.86
2022-11-13T22:13:54.571Z,8.83
2022-11-13T22:16:22.197Z,8.96
2022-11-13T22:18:52.533Z,8.67
2022-11-13T22:21:18.976Z,8.29
2022-11-13T22:23:45.413Z,9.01
2022-11-13T22:26:14.440Z,8.45
2022-11-13T22:28:42.413Z,8.58
2022-11-13T22:31:16.322Z,8.58
2022-11-13T22:33:47.788Z,8.72
2022-11-13T22:36:20.316Z,8.48
2022-11-13T22:38:47.212Z,8.45
2022-11-13T22:41:23.166Z,8.60
2022-11-13T22:43:56.807Z,8.50
2022-11-13T22:46:25.721Z,8.22
2022-11-13T22:48:54.148Z,8.41
2022-11-13T22:51:30.076Z,8.42
2022-11-13T22:54:02.025Z,8.44
2022-11-13T22:56:30.690Z,7.78
2022-11-13T22:59:00.556Z,8.36
2022-11-13T23:01:32.500Z,8.03
2022-11-13T23:04:02.015Z,8.47
2022-11-13T23:06:30.932Z,8.26
2022-11-13T23:08:57.883Z,8.43
2022-11-13T23:11:33.024Z,8.10
2022-11-13T23:14:02.214Z,8.54
2022-11-13T23:16:30.215Z,8.34
2022-11-13T23:18:58.344Z,8.47
2022-11-13T23:21:28.124Z,8.63
2022-11-13T23:23:55.252Z,8.38
2022-11-13T23:26:22.591Z,8.07
2022-11-13T23:28:49.090Z,8.33
2022-11-13T23:31:15.709Z,8.51
2022-11-13T23:33:42.750Z,8.51
2022-11-13T23:36:11.234Z,8.33
2022-11-13T23:38:37.817Z,8.53
2022-11-13T23:41:04.661Z,8.94
2022-11-13T23:43:54.343Z,8.57
2022-11-13T23:46:17.808Z,8.44
2022-11-13T23:48:44.217Z,8.65
2022-11-13T23:51:10.771Z,8.87
2022-11-13T23:53:37.233Z,9.13
2022-11-13T23:56:03.980Z,9.08
2022-11-13T23:58:32.489Z,9.15
